Time;durP1;ratioP1;P1;durP2;ratioP2;P2;SDS_P1;SDS_P2;PMS_P1;PMS_P2;Temp;Humidity;BMP_temperature;BMP_pressure;BME280_temperature;BME280_humidity;BME280_pressure;Samples;Min_cycle;Max_cycle;Signal;HPM_P1;HPM_P2
2021/05/19 00:00:49;;;;;;;3.53;0.77;;;23.40;28.90;;;;;;5070534;28;20021;-75
2021/05/19 00:03:16;;;;;;;4.93;1.23;;;23.40;29.90;;;;;;5055404;28;20043;-76
2021/05/19 00:05:43;;;;;;;1.45;0.95;;;23.30;30.00;;;;;;5073354;28;20086;-76
2021/05/19 00:08:09;;;;;;;3.78;0.70;;;23.10;29.30;;;;;;5076977;28;20074;-75
2021/05/19 00:10:37;;;;;;;2.20;0.98;;;23.10;29.00;;;;;;5073549;28;20017;-76
2021/05/19 00:13:05;;;;;;;2.15;1.30;;;22.90;28.70;;;;;;5072774;28;20016;-75
2021/05/19 00:15:31;;;;;;;1.60;1.13;;;23.10;29.20;;;;;;5078616;28;20102;-75
2021/05/19 00:18:02;;;;;;;2.97;0.80;;;22.90;29.80;;;;;;5057279;28;20386;-75
2021/05/19 00:20:29;;;;;;;1.17;0.70;;;22.80;29.60;;;;;;5056740;28;20059;-76
2021/05/19 00:22:55;;;;;;;1.67;0.80;;;22.60;31.10;;;;;;5077355;28;20025;-75
2021/05/19 00:25:22;;;;;;;2.53;0.80;;;22.60;31.10;;;;;;5071846;28;20031;-75
2021/05/19 00:27:48;;;;;;;6.03;0.93;;;22.60;28.40;;;;;;5063895;28;20078;-75
2021/05/19 00:30:19;;;;;;;1.95;0.75;;;22.70;28.70;;;;;;5049934;28;20460;-76
2021/05/19 00:32:46;;;;;;;1.00;0.70;;;22.50;28.80;;;;;;5068775;28;20063;-76
2021/05/19 00:35:13;;;;;;;2.80;0.77;;;22.30;28.50;;;;;;5049113;28;20033;-75
2021/05/19 00:37:39;;;;;;;4.38;0.90;;;22.10;29.70;;;;;;5075727;28;20028;-76
2021/05/19 00:40:07;;;;;;;1.63;0.90;;;22.00;28.50;;;;;;5072136;28;20106;-75
2021/05/19 00:42:33;;;;;;;3.85;1.10;;;22.00;28.90;;;;;;5071061;28;20081;-76
2021/05/19 00:45:08;;;;;;;2.03;0.82;;;22.00;28.20;;;;;;5070646;28;20367;-76
2021/05/19 00:47:37;;;;;;;2.40;1.20;;;21.70;28.00;;;;;;5072200;28;20379;-76
2021/05/19 00:50:14;;;;;;;3.33;0.88;;;21.70;28.00;;;;;;5054988;28;20020;-76
2021/05/19 00:52:41;;;;;;;2.72;0.90;;;21.60;28.20;;;;;;5068523;28;20120;-76
2021/05/19 00:55:09;;;;;;;1.40;0.70;;;21.70;27.40;;;;;;5065998;28;20044;-76
2021/05/19 00:57:36;;;;;;;1.92;0.88;;;21.70;27.00;;;;;;5048270;28;21716;-76
2021/05/19 01:00:05;;;;;;;2.70;0.90;;;21.80;28.00;;;;;;5077298;28;20024;-76
2021/05/19 01:02:32;;;;;;;3.40;0.80;;;21.90;27.70;;;;;;5078299;28;20478;-75
2021/05/19 01:04:59;;;;;;;5.22;1.13;;;21.80;28.30;;;;;;5057126;28;20482;-76
2021/05/19 01:07:27;;;;;;;5.65;1.15;;;21.80;29.00;;;;;;5050181;28;20090;-75
2021/05/19 01:09:54;;;;;;;6.28;1.20;;;21.70;30.60;;;;;;5061249;28;20120;-77
2021/05/19 01:12:22;;;;;;;3.72;1.50;;;21.80;34.00;;;;;;5065496;28;20107;-76
2021/05/19 01:14:51;;;;;;;2.20;2.00;;;21.80;35.40;;;;;;5064581;28;20028;-75
2021/05/19 01:17:18;;;;;;;5.22;1.40;;;21.60;36.40;;;;;;5062038;28;20758;-76
2021/05/19 01:19:51;;;;;;;8.60;1.60;;;21.40;36.80;;;;;;5073908;28;20028;-75
2021/05/19 01:22:25;;;;;;;5.93;2.20;;;21.20;36.70;;;;;;5066585;28;20510;-76
2021/05/19 01:24:52;;;;;;;3.95;1.27;;;21.00;38.10;;;;;;5070212;28;20475;-76
2021/05/19 01:27:19;;;;;;;20.98;2.53;;;20.90;37.90;;;;;;5053231;28;20478;-76
2021/05/19 01:29:54;;;;;;;6.82;2.05;;;20.80;38.40;;;;;;5069713;28;20102;-76
2021/05/19 01:32:22;;;;;;;6.30;1.55;;;20.70;37.10;;;;;;5065778;28;20085;-76
2021/05/19 01:34:48;;;;;;;5.10;1.38;;;20.80;36.80;;;;;;5067387;28;20032;-76
2021/05/19 01:37:16;;;;;;;5.30;1.35;;;20.90;36.00;;;;;;5075052;28;20029;-76
2021/05/19 01:39:44;;;;;;;2.67;1.08;;;21.00;31.70;;;;;;5059280;28;20032;-76
2021/05/19 01:42:11;;;;;;;5.32;1.42;;;20.70;32.90;;;;;;5070721;28;20025;-76
2021/05/19 01:44:38;;;;;;;2.75;1.27;;;20.90;31.10;;;;;;5071435;28;20016;-76
2021/05/19 01:47:07;;;;;;;7.25;2.80;;;20.70;31.60;;;;;;5072002;28;20372;-76
2021/05/19 01:49:40;;;;;;;5.68;2.17;;;20.70;33.00;;;;;;5065215;28;20353;-76
2021/05/19 01:52:07;;;;;;;5.47;1.77;;;20.60;32.30;;;;;;5074205;28;20509;-76
2021/05/19 01:54:34;;;;;;;4.43;1.60;;;20.60;32.00;;;;;;5070224;28;20060;-76
2021/05/19 01:57:01;;;;;;;7.38;1.95;;;20.30;33.00;;;;;;5073775;28;20044;-76
2021/05/19 01:59:27;;;;;;;8.30;2.08;;;20.20;34.10;;;;;;5069427;28;20491;-77
2021/05/19 02:01:53;;;;;;;12.20;2.28;;;19.90;34.00;;;;;;5066653;28;20036;-77
2021/05/19 02:04:20;;;;;;;5.88;1.60;;;19.80;33.90;;;;;;5050415;28;20112;-76
2021/05/19 02:06:58;;;;;;;8.02;1.85;;;19.60;34.20;;;;;;5071086;28;20044;-75
2021/05/19 02:09:26;;;;;;;3.80;1.65;;;19.40;35.00;;;;;;5071895;28;20036;-76
2021/05/19 02:11:54;;;;;;;7.97;2.33;;;19.20;35.00;;;;;;5062232;28;20021;-76
2021/05/19 02:14:21;;;;;;;5.70;2.53;;;19.00;34.70;;;;;;5075827;28;20406;-76
2021/05/19 02:16:48;;;;;;;4.28;1.70;;;18.80;34.90;;;;;;5070323;28;20090;-76
2021/05/19 02:19:15;;;;;;;1.45;1.23;;;18.70;34.70;;;;;;5070959;28;20025;-76
2021/05/19 02:21:43;;;;;;;6.75;1.60;;;18.70;34.20;;;;;;5070228;28;20036;-76
2021/05/19 02:24:10;;;;;;;6.85;1.55;;;18.50;33.60;;;;;;5063065;28;20024;-77
2021/05/19 02:26:38;;;;;;;2.55;1.55;;;18.40;34.40;;;;;;5062095;28;20491;-76
2021/05/19 02:29:05;;;;;;;2.40;1.15;;;18.50;34.50;;;;;;5069643;28;20036;-77
2021/05/19 02:31:32;;;;;;;3.42;2.25;;;18.40;34.60;;;;;;5072292;28;20039;-76
2021/05/19 02:33:59;;;;;;;7.20;1.77;;;18.30;35.40;;;;;;5051670;28;20028;-76
2021/05/19 02:36:26;;;;;;;5.40;1.77;;;18.20;35.90;;;;;;5071502;28;20032;-76
2021/05/19 02:38:54;;;;;;;7.93;2.65;;;18.10;36.40;;;;;;5049261;28;20120;-76
2021/05/19 02:41:21;;;;;;;7.35;1.65;;;17.90;37.20;;;;;;5054769;28;20031;-76
2021/05/19 02:43:47;;;;;;;2.65;1.65;;;17.90;37.50;;;;;;5073069;28;20028;-76
2021/05/19 02:46:14;;;;;;;15.65;3.47;;;17.80;38.00;;;;;;5065803;28;20044;-77
2021/05/19 02:48:41;;;;;;;4.20;1.83;;;18.00;38.00;;;;;;5070269;28;20032;-78
2021/05/19 02:51:09;;;;;;;12.07;2.38;;;17.80;38.60;;;;;;5051533;28;20088;-77
2021/05/19 02:53:36;;;;;;;3.17;1.10;;;17.60;39.00;;;;;;5053933;28;20119;-77
2021/05/19 02:56:04;;;;;;;5.00;1.83;;;17.80;40.00;;;;;;5081483;28;20085;-77
2021/05/19 02:58:33;;;;;;;4.68;2.42;;;17.70;39.90;;;;;;5070350;28;20025;-78
2021/05/19 03:01:00;;;;;;;6.07;2.65;;;17.60;40.20;;;;;;5077035;28;20028;-78
2021/05/19 03:03:27;;;;;;;8.40;1.88;;;17.40;41.90;;;;;;5067909;28;20031;-78
2021/05/19 03:05:53;;;;;;;7.47;1.90;;;17.40;40.70;;;;;;5071875;28;20456;-77
2021/05/19 03:08:20;;;;;;;9.02;2.05;;;17.30;42.30;;;;;;5069542;28;20027;-79
2021/05/19 03:10:46;;;;;;;6.65;2.88;;;17.20;45.00;;;;;;5053429;28;20040;-79
2021/05/19 03:13:13;;;;;;;5.43;1.83;;;17.10;45.40;;;;;;5055407;28;20360;-78
2021/05/19 03:15:39;;;;;;;8.15;2.80;;;16.90;43.90;;;;;;5058395;28;20039;-77
2021/05/19 03:18:05;;;;;;;9.00;1.92;;;16.80;44.00;;;;;;5064769;28;20029;-78
2021/05/19 03:20:32;;;;;;;4.78;2.30;;;16.70;44.50;;;;;;5059761;28;20372;-79
2021/05/19 03:22:59;;;;;;;2.85;1.88;;;16.70;44.80;;;;;;5063568;28;20021;-78
2021/05/19 03:25:25;;;;;;;6.72;2.28;;;16.70;44.80;;;;;;5072500;28;20027;-78
2021/05/19 03:27:52;;;;;;;9.10;3.40;;;16.50;45.10;;;;;;5053258;28;20459;-78
2021/05/19 03:30:19;;;;;;;4.28;2.28;;;16.40;45.00;;;;;;5048916;28;20025;-78
2021/05/19 03:32:46;;;;;;;8.27;2.03;;;16.40;45.30;;;;;;5037880;28;20491;-77
2021/05/19 03:35:13;;;;;;;6.18;2.13;;;16.30;46.10;;;;;;5058985;28;20036;-77
2021/05/19 03:37:40;;;;;;;5.05;2.00;;;16.30;46.20;;;;;;5068077;28;20037;-78
2021/05/19 03:40:09;;;;;;;7.53;2.40;;;16.20;46.90;;;;;;5046990;28;20029;-78
2021/05/19 03:42:36;;;;;;;6.13;2.67;;;16.20;46.50;;;;;;5072918;28;20024;-78
2021/05/19 03:45:05;;;;;;;5.38;2.15;;;16.10;46.80;;;;;;5056094;28;20017;-78
2021/05/19 03:47:32;;;;;;;4.53;2.20;;;16.00;47.60;;;;;;5052805;28;20021;-77
2021/05/19 03:49:58;;;;;;;4.05;2.08;;;15.90;47.30;;;;;;5072469;28;20051;-77
2021/05/19 03:52:25;;;;;;;6.90;2.03;;;15.90;47.80;;;;;;5073386;28;20033;-77
2021/05/19 03:54:51;;;;;;;5.72;2.67;;;15.80;48.40;;;;;;5061206;28;20505;-77
2021/05/19 03:57:17;;;;;;;5.07;2.30;;;15.80;48.40;;;;;;5073483;28;20067;-78
2021/05/19 03:59:44;;;;;;;4.55;2.20;;;15.70;48.90;;;;;;5072189;28;20020;-78
2021/05/19 04:02:10;;;;;;;5.40;2.55;;;15.70;49.60;;;;;;5070965;28;20539;-76
2021/05/19 04:04:37;;;;;;;8.27;2.53;;;15.60;50.10;;;;;;5066683;28;20056;-77
2021/05/19 04:07:04;;;;;;;5.18;2.55;;;15.50;48.80;;;;;;5056994;28;20032;-77
2021/05/19 04:09:30;;;;;;;18.33;3.55;;;15.60;49.50;;;;;;5072175;28;20024;-77
2021/05/19 04:11:57;;;;;;;4.85;2.17;;;15.60;49.40;;;;;;5055774;28;20115;-77
2021/05/19 04:14:24;;;;;;;12.45;3.30;;;15.60;49.30;;;;;;5070498;28;20388;-77
2021/05/19 04:16:50;;;;;;;4.85;1.92;;;15.60;49.50;;;;;;5070657;28;20099;-77
2021/05/19 04:19:16;;;;;;;20.15;2.95;;;15.60;49.60;;;;;;5071546;28;20032;-77
2021/05/19 04:21:43;;;;;;;9.32;2.92;;;15.60;49.90;;;;;;5065650;28;20056;-77
2021/05/19 04:24:09;;;;;;;8.23;3.88;;;15.60;49.70;;;;;;5065873;28;20024;-77
2021/05/19 04:26:36;;;;;;;3.88;1.83;;;15.50;50.30;;;;;;5072497;28;20472;-77
2021/05/19 04:29:03;;;;;;;9.20;2.78;;;15.50;49.60;;;;;;5068414;28;20021;-77
2021/05/19 04:31:30;;;;;;;12.93;4.10;;;15.50;49.60;;;;;;5057774;28;20037;-77
2021/05/19 04:33:56;;;;;;;9.38;3.50;;;15.50;50.30;;;;;;5066664;28;20058;-77
2021/05/19 04:36:23;;;;;;;10.23;3.08;;;15.50;50.10;;;;;;5058953;28;20055;-77
2021/05/19 04:38:49;;;;;;;4.18;2.00;;;15.50;50.50;;;;;;5053991;28;20104;-77
2021/05/19 04:41:16;;;;;;;15.02;2.70;;;15.50;50.10;;;;;;5066847;28;20059;-77
2021/05/19 04:43:43;;;;;;;5.05;2.40;;;15.40;51.00;;;;;;5065849;28;20098;-77
2021/05/19 04:46:09;;;;;;;8.82;3.50;;;15.40;52.40;;;;;;5067832;28;20044;-78
2021/05/19 04:48:36;;;;;;;12.82;3.63;;;15.30;52.20;;;;;;5076861;28;20024;-77
2021/05/19 04:51:02;;;;;;;9.48;2.00;;;15.30;52.10;;;;;;5046606;28;20356;-78
2021/05/19 04:53:29;;;;;;;6.57;2.78;;;15.30;52.30;;;;;;5074057;28;20024;-77
2021/05/19 04:55:55;;;;;;;15.38;2.30;;;15.30;52.40;;;;;;5053013;28;20083;-77
2021/05/19 04:58:26;;;;;;;14.48;4.00;;;15.20;51.20;;;;;;5068350;28;20102;-78
2021/05/19 05:00:53;;;;;;;6.85;2.80;;;15.30;52.60;;;;;;5055097;28;20029;-77
2021/05/19 05:03:21;;;;;;;12.40;2.42;;;15.10;51.60;;;;;;5052150;28;20089;-77
2021/05/19 05:05:47;;;;;;;15.25;3.33;;;15.10;51.80;;;;;;5058452;28;20029;-77
2021/05/19 05:08:14;;;;;;;8.35;3.42;;;15.20;51.80;;;;;;5074249;28;20033;-77
2021/05/19 05:10:40;;;;;;;7.65;2.92;;;15.20;51.50;;;;;;5068390;28;20096;-77
2021/05/19 05:13:07;;;;;;;6.95;3.00;;;15.10;53.50;;;;;;5075618;28;20024;-77
2021/05/19 05:15:33;;;;;;;9.98;3.08;;;15.10;52.30;;;;;;5078297;28;20024;-77
2021/05/19 05:18:00;;;;;;;10.93;2.97;;;15.10;52.90;;;;;;5074456;28;20103;-76
2021/05/19 05:20:26;;;;;;;12.23;2.92;;;15.00;53.00;;;;;;5082313;28;20028;-76
2021/05/19 05:22:53;;;;;;;9.18;3.58;;;14.90;53.10;;;;;;5068895;28;20036;-78
2021/05/19 05:25:21;;;;;;;7.10;2.10;;;15.00;53.20;;;;;;5070610;28;20031;-77
2021/05/19 05:27:48;;;;;;;14.23;3.70;;;15.00;52.10;;;;;;5066344;28;20064;-78
2021/05/19 05:30:16;;;;;;;15.95;3.58;;;14.90;52.10;;;;;;5073832;28;20086;-77
2021/05/19 05:32:43;;;;;;;3.60;2.25;;;15.00;52.10;;;;;;5068564;28;20031;-76
2021/05/19 05:35:10;;;;;;;7.60;3.35;;;15.00;52.40;;;;;;5072205;28;20368;-77
2021/05/19 05:37:37;;;;;;;14.75;2.85;;;15.00;51.60;;;;;;5059719;28;20044;-77
2021/05/19 05:40:06;;;;;;;6.82;3.20;;;14.90;52.70;;;;;;5076498;28;20042;-77
2021/05/19 05:42:33;;;;;;;12.30;3.13;;;15.00;52.50;;;;;;5068307;28;20427;-77
2021/05/19 05:45:00;;;;;;;8.85;3.08;;;14.80;52.50;;;;;;5076325;28;20090;-77
2021/05/19 05:47:26;;;;;;;10.07;2.60;;;14.90;52.00;;;;;;5081766;28;20020;-77
2021/05/19 05:49:53;;;;;;;8.05;3.92;;;14.80;53.20;;;;;;5074280;28;20012;-77
2021/05/19 05:52:19;;;;;;;9.05;2.40;;;15.00;52.80;;;;;;5072534;28;20028;-77
2021/05/19 05:54:46;;;;;;;7.63;3.08;;;14.90;53.30;;;;;;5072981;28;20036;-77
2021/05/19 05:57:12;;;;;;;7.47;2.20;;;14.90;53.00;;;;;;5081301;28;20107;-77
2021/05/19 05:59:39;;;;;;;11.23;2.78;;;14.80;53.40;;;;;;5073638;28;20017;-77
2021/05/19 06:02:06;;;;;;;9.68;2.03;;;14.80;53.10;;;;;;5069242;28;20046;-76
2021/05/19 06:04:33;;;;;;;5.60;3.00;;;14.90;53.50;;;;;;5059720;28;20027;-77
2021/05/19 06:06:59;;;;;;;20.58;4.18;;;14.80;53.50;;;;;;5050229;28;20033;-77
2021/05/19 06:09:26;;;;;;;9.88;2.85;;;14.90;53.70;;;;;;5074962;28;20085;-77
2021/05/19 06:11:52;;;;;;;9.68;2.17;;;14.80;53.50;;;;;;5066654;28;20046;-76
2021/05/19 06:14:20;;;;;;;8.07;2.70;;;14.90;54.10;;;;;;5070477;28;20017;-77
2021/05/19 06:16:46;;;;;;;5.38;1.80;;;14.80;53.90;;;;;;5055814;28;20025;-77
2021/05/19 06:19:13;;;;;;;8.60;3.00;;;14.90;54.20;;;;;;5085823;28;20032;-76
2021/05/19 06:21:40;;;;;;;11.13;3.97;;;14.70;54.40;;;;;;5086750;28;20039;-77
2021/05/19 06:24:07;;;;;;;8.20;2.92;;;14.90;54.50;;;;;;5081093;28;20474;-77
2021/05/19 06:26:34;;;;;;;7.15;1.60;;;14.80;54.40;;;;;;5074466;28;20068;-77
2021/05/19 06:29:00;;;;;;;12.30;3.03;;;14.90;54.90;;;;;;5055199;28;20111;-77
2021/05/19 06:31:26;;;;;;;16.15;2.63;;;14.70;54.90;;;;;;5071787;28;20025;-78
2021/05/19 06:33:53;;;;;;;5.28;1.60;;;14.60;55.00;;;;;;5069828;28;20025;-79
2021/05/19 06:36:19;;;;;;;2.92;2.10;;;14.70;55.20;;;;;;5078159;28;20052;-77
2021/05/19 06:38:45;;;;;;;8.70;3.45;;;14.70;55.50;;;;;;5074818;28;20024;-76
2021/05/19 06:41:12;;;;;;;12.93;3.55;;;14.60;55.20;;;;;;5060455;28;20035;-76
2021/05/19 06:43:38;;;;;;;5.53;2.95;;;14.50;55.70;;;;;;5066485;28;20021;-76
2021/05/19 06:46:05;;;;;;;8.45;3.30;;;14.50;55.40;;;;;;5071904;28;20028;-75
2021/05/19 06:48:31;;;;;;;4.28;2.35;;;14.40;56.20;;;;;;5063921;28;20028;-76
2021/05/19 06:50:57;;;;;;;3.65;2.00;;;14.60;56.40;;;;;;5080311;28;20024;-77
2021/05/19 06:53:25;;;;;;;6.85;2.75;;;14.70;56.10;;;;;;5072890;28;20040;-77
2021/05/19 06:55:52;;;;;;;9.70;3.00;;;14.60;55.90;;;;;;5079612;28;20012;-77
2021/05/19 06:58:19;;;;;;;17.85;3.15;;;14.50;56.10;;;;;;5073985;28;20526;-77
2021/05/19 07:00:46;;;;;;;8.68;2.63;;;14.60;55.80;;;;;;5063884;28;20059;-77
2021/05/19 07:03:12;;;;;;;13.18;2.95;;;14.40;55.80;;;;;;5076676;28;20013;-76
2021/05/19 07:05:39;;;;;;;4.32;2.17;;;14.50;55.90;;;;;;5070467;28;20074;-76
2021/05/19 07:08:06;;;;;;;6.25;1.92;;;14.40;55.60;;;;;;5073367;28;20028;-76
2021/05/19 07:10:33;;;;;;;3.00;2.22;;;14.50;56.10;;;;;;5070327;28;20013;-76
2021/05/19 07:12:59;;;;;;;7.70;2.45;;;14.60;56.00;;;;;;5069975;28;20024;-77
2021/05/19 07:15:31;;;;;;;5.05;1.92;;;14.50;56.00;;;;;;5070650;28;20021;-77
2021/05/19 07:18:04;;;;;;;5.53;2.25;;;14.60;55.60;;;;;;5071572;28;20025;-76
2021/05/19 07:20:30;;;;;;;;;;;14.60;55.40;;;;;;5072507;28;20103;-76
2021/05/19 07:22:56;;;;;;;8.70;2.55;;;14.50;54.90;;;;;;5074547;28;19919;-77
2021/05/19 07:25:23;;;;;;;13.15;3.35;;;14.60;55.40;;;;;;5080727;28;20086;-76
2021/05/19 07:27:49;;;;;;;3.03;1.55;;;14.60;55.70;;;;;;5049729;28;20026;-76
2021/05/19 07:30:16;;;;;;;6.35;3.40;;;14.60;55.20;;;;;;5063976;28;20021;-77
2021/05/19 07:32:42;;;;;;;6.75;2.47;;;14.50;55.80;;;;;;5069067;28;20088;-75
2021/05/19 07:35:11;;;;;;;13.88;2.55;;;14.50;55.70;;;;;;5075425;28;20028;-77
2021/05/19 07:37:38;;;;;;;3.10;1.98;;;14.50;56.00;;;;;;5065085;28;20123;-76
2021/05/19 07:40:05;;;;;;;11.90;3.03;;;14.50;55.40;;;;;;5074656;28;20030;-76
2021/05/19 07:42:31;;;;;;;6.55;2.05;;;14.50;55.40;;;;;;5072676;28;20103;-76
2021/05/19 07:44:58;;;;;;;5.13;1.80;;;14.50;56.30;;;;;;5054776;28;20112;-76
2021/05/19 07:47:24;;;;;;;10.15;2.45;;;14.40;56.00;;;;;;5066617;28;20024;-76
2021/05/19 07:49:52;;;;;;;11.10;2.53;;;14.50;55.90;;;;;;5079139;28;20031;-76
2021/05/19 07:52:19;;;;;;;4.35;1.92;;;14.50;55.70;;;;;;5084766;28;20028;-76
2021/05/19 07:54:47;;;;;;;2.63;2.17;;;14.40;55.70;;;;;;5069818;28;20422;-76
2021/05/19 07:59:41;;;;;;;5.38;1.88;;;14.40;55.40;;;;;;5080838;28;20028;-76
2021/05/19 08:02:10;;;;;;;9.93;2.05;;;14.50;55.40;;;;;;5074105;28;20100;-76
2021/05/19 08:04:37;;;;;;;13.07;3.00;;;14.50;55.40;;;;;;5050789;28;20033;-76
2021/05/19 08:07:05;;;;;;;8.23;2.90;;;14.50;55.20;;;;;;5052355;28;20052;-76
2021/05/19 08:09:33;;;;;;;8.80;2.40;;;14.50;55.60;;;;;;5052440;28;20477;-77
2021/05/19 08:12:00;;;;;;;3.20;2.67;;;14.40;55.30;;;;;;5082868;28;20033;-76
2021/05/19 08:14:29;;;;;;;5.97;2.20;;;14.40;55.90;;;;;;5071818;28;20062;-76
2021/05/19 08:16:59;;;;;;;18.00;2.97;;;14.40;55.80;;;;;;5072186;28;20111;-77
2021/05/19 08:19:26;;;;;;;17.20;4.10;;;14.40;55.40;;;;;;5070250;28;20574;-76
2021/05/19 08:21:52;;;;;;;6.97;2.30;;;14.50;55.80;;;;;;5071884;28;20064;-77
2021/05/19 08:24:19;;;;;;;11.88;2.40;;;14.40;55.80;;;;;;5075816;28;20024;-76
2021/05/19 08:26:45;;;;;;;6.82;1.95;;;14.30;56.00;;;;;;5070092;28;20040;-76
2021/05/19 08:29:11;;;;;;;8.15;2.00;;;14.40;56.20;;;;;;5073555;28;20487;-77
2021/05/19 08:31:38;;;;;;;6.13;3.05;;;14.20;56.00;;;;;;5056330;28;20043;-77
2021/05/19 08:34:04;;;;;;;10.70;3.75;;;14.30;55.90;;;;;;5059903;28;20379;-77
2021/05/19 08:36:32;;;;;;;4.78;1.75;;;14.20;56.10;;;;;;5070009;28;20039;-76
2021/05/19 08:38:59;;;;;;;3.10;2.83;;;14.30;56.50;;;;;;5075029;28;20035;-77
2021/05/19 08:41:25;;;;;;;5.68;2.13;;;14.40;57.00;;;;;;5073755;28;20032;-77
2021/05/19 08:43:52;;;;;;;13.93;2.95;;;14.40;56.30;;;;;;5075219;28;20100;-77
2021/05/19 08:46:18;;;;;;;15.65;2.55;;;14.20;56.80;;;;;;5073930;28;20467;-76
2021/05/19 08:48:52;;;;;;;7.85;3.85;;;14.30;56.90;;;;;;5064930;28;20039;-77
2021/05/19 08:51:19;;;;;;;12.88;2.33;;;14.30;57.10;;;;;;5081125;28;20024;-77
2021/05/19 08:53:46;;;;;;;5.35;2.20;;;14.20;56.60;;;;;;5057080;28;20041;-77
2021/05/19 08:56:13;;;;;;;8.68;2.13;;;14.30;56.70;;;;;;5074084;28;20035;-76
2021/05/19 08:58:40;;;;;;;11.40;2.70;;;14.20;57.00;;;;;;5070616;28;20024;-77
2021/05/19 09:01:07;;;;;;;8.30;2.22;;;14.20;57.10;;;;;;5061346;28;20036;-76
2021/05/19 09:03:35;;;;;;;10.40;2.33;;;14.30;57.20;;;;;;5065715;28;20681;-77
2021/05/19 09:06:09;;;;;;;14.48;2.45;;;14.20;56.40;;;;;;5069384;28;20017;-77
2021/05/19 09:08:39;;;;;;;14.98;3.50;;;14.10;57.40;;;;;;5070243;28;20082;-76
2021/05/19 09:11:11;;;;;;;9.23;2.42;;;14.20;57.30;;;;;;5073368;28;20032;-76
2021/05/19 09:13:45;;;;;;;8.35;2.83;;;14.30;57.50;;;;;;5074271;28;20027;-77
2021/05/19 09:16:15;;;;;;;2.63;2.42;;;14.20;57.30;;;;;;5088061;28;20058;-76
2021/05/19 09:18:48;;;;;;;3.83;2.40;;;14.10;57.30;;;;;;5074252;28;20459;-76
2021/05/19 09:21:42;;;;;;;8.00;2.28;;;14.20;57.70;;;;;;5088939;28;20035;-77
2021/05/19 09:24:21;;;;;;;12.20;2.63;;;14.20;57.80;;;;;;5067100;28;20079;-77
2021/05/19 09:27:02;;;;;;;10.32;2.33;;;14.20;58.00;;;;;;5058669;28;20016;-77
2021/05/19 09:29:29;;;;;;;8.38;2.85;;;14.20;58.10;;;;;;5071938;28;20035;-77
2021/05/19 09:32:01;;;;;;;7.85;3.22;;;14.10;57.70;;;;;;5062715;28;20108;-77
2021/05/19 09:34:38;;;;;;;3.42;1.75;;;14.10;58.00;;;;;;5083212;28;20028;-77
2021/05/19 09:37:15;;;;;;;9.48;3.72;;;14.20;58.00;;;;;;5076302;28;20418;-76
2021/05/19 09:39:59;;;;;;;8.55;3.47;;;14.00;57.60;;;;;;5054378;28;20418;-77
2021/05/19 09:42:30;;;;;;;4.55;2.65;;;14.10;57.70;;;;;;5080018;28;20447;-77
2021/05/19 09:45:01;;;;;;;13.07;4.20;;;14.20;58.00;;;;;;5085894;28;20085;-76
2021/05/19 09:47:39;;;;;;;8.90;2.88;;;14.10;58.20;;;;;;5081757;28;20019;-77
2021/05/19 09:50:08;;;;;;;12.80;2.53;;;14.00;58.00;;;;;;5081101;28;20053;-76
2021/05/19 09:52:34;;;;;;;5.45;2.15;;;14.00;57.90;;;;;;5062693;28;20085;-76
2021/05/19 09:55:12;;;;;;;10.63;3.28;;;14.00;58.20;;;;;;5072957;28;20060;-77
2021/05/19 09:57:48;;;;;;;6.03;2.60;;;14.10;58.30;;;;;;5073238;28;20046;-76
2021/05/19 10:00:19;;;;;;;16.70;4.15;;;14.10;58.60;;;;;;5067733;28;20028;-77
2021/05/19 10:02:47;;;;;;;16.70;3.23;;;14.00;57.80;;;;;;5073374;28;20039;-77
2021/05/19 10:05:18;;;;;;;8.25;3.25;;;14.20;57.90;;;;;;5074698;28;20050;-77
2021/05/19 10:07:44;;;;;;;13.85;5.10;;;14.20;58.50;;;;;;5047603;28;20036;-77
2021/05/19 10:10:11;;;;;;;10.05;2.60;;;14.10;58.20;;;;;;5074966;28;20028;-76
2021/05/19 10:12:39;;;;;;;8.35;2.25;;;14.10;57.90;;;;;;5065460;28;20393;-76
2021/05/19 10:15:22;;;;;;;11.73;3.30;;;14.00;58.50;;;;;;5077245;28;20035;-77
2021/05/19 10:17:56;;;;;;;6.45;2.67;;;14.00;58.70;;;;;;5085986;28;20038;-76
2021/05/19 10:20:27;;;;;;;16.02;4.55;;;14.00;58.90;;;;;;5063602;28;20064;-77
2021/05/19 10:22:54;;;;;;;20.75;4.53;;;14.20;58.50;;;;;;5073556;28;20028;-76
2021/05/19 10:25:34;;;;;;;9.57;3.45;;;14.10;58.00;;;;;;5052182;28;20086;-76
2021/05/19 10:28:02;;;;;;;8.38;4.25;;;14.10;58.70;;;;;;5057583;28;20087;-76
2021/05/19 10:30:42;;;;;;;7.20;2.35;;;14.00;58.90;;;;;;5074523;28;20083;-77
2021/05/19 10:33:29;;;;;;;8.60;2.50;;;13.90;58.60;;;;;;5067254;28;20407;-80
2021/05/19 10:36:01;;;;;;;4.43;3.40;;;13.90;59.20;;;;;;5040369;28;20044;-78
2021/05/19 10:38:32;;;;;;;17.77;2.83;;;13.90;58.60;;;;;;5046133;28;20478;-77
2021/05/19 10:41:03;;;;;;;9.35;2.50;;;13.90;58.40;;;;;;5070060;28;20319;-78
2021/05/19 10:43:57;;;;;;;9.52;2.90;;;13.90;59.20;;;;;;5056220;28;20028;-79
2021/05/19 10:47:07;;;;;;;11.25;3.20;;;14.10;59.10;;;;;;5069465;28;20095;-79
2021/05/19 10:49:56;;;;;;;16.67;5.25;;;13.90;58.90;;;;;;5072853;28;20024;-79
2021/05/19 10:57:58;;;;;;;7.75;2.47;;;13.80;59.40;;;;;;5065018;28;20497;-79
2021/05/19 11:00:29;;;;;;;8.57;2.88;;;14.00;59.20;;;;;;5056273;28;20467;-79
2021/05/19 11:03:05;;;;;;;13.70;2.40;;;13.80;59.00;;;;;;5063323;28;20033;-79
2021/05/19 11:05:34;;;;;;;20.15;3.45;;;13.70;59.70;;;;;;5050377;28;20073;-79
2021/05/19 11:10:38;;;;;;;8.57;3.03;;;13.70;59.80;;;;;;5073005;28;20025;-79
2021/05/19 11:13:05;;;;;;;17.75;5.95;;;13.80;59.80;;;;;;5073411;28;20032;-78
2021/05/19 11:20:56;;;;;;;14.85;2.72;;;13.80;59.40;;;;;;5068975;28;20044;-78
2021/05/19 11:23:23;;;;;;;13.40;4.03;;;13.80;59.20;;;;;;5045737;28;20024;-78
2021/05/19 11:25:49;;;;;;;6.47;2.92;;;13.90;58.70;;;;;;5076769;28;20017;-78
2021/05/19 11:28:25;;;;;;;10.43;2.75;;;14.00;58.80;;;;;;5079603;28;20027;-79
2021/05/19 11:31:06;;;;;;;16.02;3.35;;;14.00;59.00;;;;;;5071615;28;20028;-78
2021/05/19 11:34:03;;;;;;;18.55;2.95;;;14.00;58.60;;;;;;5076406;28;20025;-76
2021/05/19 11:36:31;;;;;;;7.22;1.90;;;14.00;58.40;;;;;;5066711;28;20439;-78
2021/05/19 11:39:00;;;;;;;27.27;4.28;;;13.90;58.80;;;;;;5065809;28;20029;-79
2021/05/19 11:41:27;;;;;;;10.38;3.90;;;13.80;58.60;;;;;;5068071;28;20452;-79
2021/05/19 11:43:53;;;;;;;18.75;5.60;;;13.90;58.70;;;;;;5058871;28;20040;-78
2021/05/19 11:46:19;;;;;;;15.00;5.00;;;13.90;58.50;;;;;;5056539;28;20032;-79
2021/05/19 11:48:50;;;;;;;12.40;3.05;;;13.70;58.60;;;;;;5064582;28;20025;-79
2021/05/19 11:51:20;;;;;;;9.90;3.50;;;13.70;58.90;;;;;;5071585;28;20025;-78
2021/05/19 11:54:03;;;;;;;10.20;2.97;;;13.60;59.10;;;;;;5075803;28;20050;-78
2021/05/19 11:56:47;;;;;;;9.73;3.58;;;13.80;58.50;;;;;;5067269;28;20033;-78
2021/05/19 11:59:26;;;;;;;7.55;3.80;;;13.80;58.70;;;;;;5078155;28;20017;-78
2021/05/19 12:01:58;;;;;;;14.60;2.30;;;13.70;58.30;;;;;;5074045;28;20035;-78
2021/05/19 12:04:27;;;;;;;9.80;2.67;;;13.70;58.60;;;;;;5067796;28;20059;-78
2021/05/19 12:06:55;;;;;;;8.35;3.55;;;13.50;58.50;;;;;;5073206;28;20020;-78
2021/05/19 12:09:22;;;;;;;16.83;2.92;;;13.80;58.00;;;;;;5071710;28;20325;-78
2021/05/19 12:11:50;;;;;;;8.65;3.22;;;13.70;57.90;;;;;;5076773;28;20052;-79
2021/05/19 12:14:18;;;;;;;8.70;2.78;;;13.70;57.60;;;;;;5080724;28;20112;-78
2021/05/19 12:16:46;;;;;;;13.88;4.13;;;13.80;57.80;;;;;;5078459;28;20048;-77
2021/05/19 12:19:20;;;;;;;7.07;2.95;;;13.70;57.80;;;;;;5080106;28;20489;-78
2021/05/19 12:21:52;;;;;;;13.82;2.42;;;13.70;58.10;;;;;;5075703;28;20029;-78
2021/05/19 12:24:28;;;;;;;10.93;2.60;;;13.70;58.10;;;;;;5070202;28;20031;-78
2021/05/19 12:26:55;;;;;;;6.50;2.67;;;13.80;57.80;;;;;;5069242;28;20035;-78
2021/05/19 12:29:37;;;;;;;8.75;3.13;;;13.60;57.60;;;;;;5064777;28;20028;-78
2021/05/19 12:32:20;;;;;;;8.63;3.95;;;13.70;57.70;;;;;;5069942;28;20036;-77
2021/05/19 12:34:59;;;;;;;7.85;2.50;;;13.70;57.50;;;;;;5067262;28;20466;-78
2021/05/19 12:38:02;;;;;;;13.63;3.83;;;13.70;57.50;;;;;;5061806;28;20032;-77
2021/05/19 12:40:32;;;;;;;3.97;2.13;;;13.70;57.50;;;;;;5052921;28;20044;-78
2021/05/19 12:43:09;;;;;;;5.97;2.95;;;13.60;57.60;;;;;;5052725;28;20127;-77
2021/05/19 12:45:38;;;;;;;8.82;2.05;;;13.60;57.40;;;;;;5073632;28;20455;-77
2021/05/19 12:48:11;;;;;;;3.45;2.03;;;13.50;57.50;;;;;;5073828;28;20036;-77
2021/05/19 12:50:46;;;;;;;15.07;3.42;;;13.50;57.60;;;;;;5063694;28;20216;-78
2021/05/19 12:53:31;;;;;;;6.25;2.42;;;13.50;58.00;;;;;;5072505;28;20024;-77
2021/05/19 12:56:13;;;;;;;4.18;2.00;;;13.60;57.80;;;;;;5076318;28;20501;-80
2021/05/19 12:58:48;;;;;;;;;;;13.60;57.70;;;;;;5063110;28;20043;-79
2021/05/19 13:01:15;;;;;;;10.48;3.22;;;13.70;56.90;;;;;;5072548;28;19917;-78
2021/05/19 13:03:42;;;;;;;3.50;1.95;;;13.60;56.90;;;;;;5064693;28;20072;-77
2021/05/19 13:06:09;;;;;;;8.65;2.30;;;13.50;57.20;;;;;;5071658;28;20028;-78
2021/05/19 13:08:35;;;;;;;7.90;3.20;;;13.50;57.50;;;;;;5053225;28;20118;-78
2021/05/19 13:11:06;;;;;;;4.00;3.20;;;13.70;57.10;;;;;;5055424;28;20039;-78